sensor_id;sensor_type;location;lat;lon;timestamp;pressure;altitude;pressure_sealevel;temperature;humidity
73558;BME280;61829;53.286;10.434;2024-03-17T00:01:59;102018.25;;;4.36;85.98
73558;BME280;61829;53.286;10.434;2024-03-17T00:04:44;102013.81;;;4.36;86.24
73558;BME280;61829;53.286;10.434;2024-03-17T00:07:28;102019.25;;;4.35;86.04
73558;BME280;61829;53.286;10.434;2024-03-17T00:10:13;102023.00;;;4.32;85.87
73558;BME280;61829;53.286;10.434;2024-03-17T00:12:59;102027.47;;;4.32;85.97
73558;BME280;61829;53.286;10.434;2024-03-17T00:15:44;102025.78;;;4.31;86.25
73558;BME280;61829;53.286;10.434;2024-03-17T00:18:28;102029.41;;;4.30;86.98
73558;BME280;61829;53.286;10.434;2024-03-17T00:21:13;102033.06;;;4.28;87.04
73558;BME280;61829;53.286;10.434;2024-03-17T00:23:57;102031.34;;;4.27;86.92
73558;BME280;61829;53.286;10.434;2024-03-17T00:26:42;102032.31;;;4.26;87.25
73558;BME280;61829;53.286;10.434;2024-03-17T00:29:27;102037.78;;;4.25;87.07
73558;BME280;61829;53.286;10.434;2024-03-17T00:32:12;102042.13;;;4.26;87.01
73558;BME280;61829;53.286;10.434;2024-03-17T00:34:57;102032.44;;;4.25;87.36
73558;BME280;61829;53.286;10.434;2024-03-17T00:37:41;102031.69;;;4.23;87.60
73558;BME280;61829;53.286;10.434;2024-03-17T00:40:25;102035.44;;;4.20;87.76
73558;BME280;61829;53.286;10.434;2024-03-17T00:43:11;102039.19;;;4.18;87.96
73558;BME280;61829;53.286;10.434;2024-03-17T00:45:58;102041.97;;;4.16;87.12
73558;BME280;61829;53.286;10.434;2024-03-17T00:48:47;102041.22;;;4.14;87.75
73558;BME280;61829;53.286;10.434;2024-03-17T00:51:33;102039.63;;;4.12;87.10
73558;BME280;61829;53.286;10.434;2024-03-17T00:54:17;102046.88;;;4.10;87.98
73558;BME280;61829;53.286;10.434;2024-03-17T00:57:04;102050.75;;;4.05;87.38
73558;BME280;61829;53.286;10.434;2024-03-17T00:59:50;102048.41;;;4.01;87.20
73558;BME280;61829;53.286;10.434;2024-03-17T01:02:36;102047.78;;;3.97;87.76
73558;BME280;61829;53.286;10.434;2024-03-17T01:05:21;102046.19;;;3.95;87.65
73558;BME280;61829;53.286;10.434;2024-03-17T01:08:05;102057.94;;;3.92;87.28
73558;BME280;61829;53.286;10.434;2024-03-17T01:10:50;102053.91;;;3.87;87.33
73558;BME280;61829;53.286;10.434;2024-03-17T01:13:35;102056.69;;;3.85;88.36
73558;BME280;61829;53.286;10.434;2024-03-17T01:16:25;102056.03;;;3.81;87.80
73558;BME280;61829;53.286;10.434;2024-03-17T01:19:09;102062.44;;;3.79;88.46
73558;BME280;61829;53.286;10.434;2024-03-17T01:21:54;102057.56;;;3.73;88.62
73558;BME280;61829;53.286;10.434;2024-03-17T01:24:38;102061.50;;;3.67;88.28
73558;BME280;61829;53.286;10.434;2024-03-17T01:27:27;102047.56;;;3.64;88.00
73558;BME280;61829;53.286;10.434;2024-03-17T01:30:12;102059.41;;;3.59;88.34
73558;BME280;61829;53.286;10.434;2024-03-17T01:32:57;102053.44;;;3.56;88.47
73558;BME280;61829;53.286;10.434;2024-03-17T01:35:41;102053.78;;;3.51;88.71
73558;BME280;61829;53.286;10.434;2024-03-17T01:38:26;102057.59;;;3.47;88.71
73558;BME280;61829;53.286;10.434;2024-03-17T01:41:10;102055.38;;;3.41;87.99
73558;BME280;61829;53.286;10.434;2024-03-17T01:43:55;102057.28;;;3.39;88.59
73558;BME280;61829;53.286;10.434;2024-03-17T01:46:40;102060.06;;;3.37;88.78
73558;BME280;61829;53.286;10.434;2024-03-17T01:49:25;102053.91;;;3.37;89.49
73558;BME280;61829;53.286;10.434;2024-03-17T01:52:11;102048.56;;;3.37;89.61
73558;BME280;61829;53.286;10.434;2024-03-17T01:54:56;102048.75;;;3.34;89.52
73558;BME280;61829;53.286;10.434;2024-03-17T01:57:40;102048.13;;;3.30;89.44
73558;BME280;61829;53.286;10.434;2024-03-17T02:00:25;102044.84;;;3.27;90.04
73558;BME280;61829;53.286;10.434;2024-03-17T02:03:10;102049.53;;;3.23;89.42
73558;BME280;61829;53.286;10.434;2024-03-17T02:05:58;102048.88;;;3.20;89.62
73558;BME280;61829;53.286;10.434;2024-03-17T02:08:47;102052.50;;;3.19;90.23
73558;BME280;61829;53.286;10.434;2024-03-17T02:11:32;102046.53;;;3.15;90.49
73558;BME280;61829;53.286;10.434;2024-03-17T02:14:17;102052.81;;;3.14;90.50
73558;BME280;61829;53.286;10.434;2024-03-17T02:17:02;102050.91;;;3.16;90.82
73558;BME280;61829;53.286;10.434;2024-03-17T02:19:48;102049.00;;;3.18;90.88
73558;BME280;61829;53.286;10.434;2024-03-17T02:22:37;102052.28;;;3.22;90.97
73558;BME280;61829;53.286;10.434;2024-03-17T02:25:21;102048.25;;;3.29;91.74
73558;BME280;61829;53.286;10.434;2024-03-17T02:28:05;102060.16;;;3.36;91.68
73558;BME280;61829;53.286;10.434;2024-03-17T02:30:50;102058.03;;;3.41;92.09
73558;BME280;61829;53.286;10.434;2024-03-17T02:33:34;102062.94;;;3.47;92.48
73558;BME280;61829;53.286;10.434;2024-03-17T02:36:19;102058.22;;;3.51;92.53
73558;BME280;61829;53.286;10.434;2024-03-17T02:39:04;102056.09;;;3.56;91.80
73558;BME280;61829;53.286;10.434;2024-03-17T02:42:09;102064.00;;;3.57;91.89
73558;BME280;61829;53.286;10.434;2024-03-17T02:44:54;102064.75;;;3.59;91.82
73558;BME280;61829;53.286;10.434;2024-03-17T02:47:39;102060.34;;;3.58;92.57
73558;BME280;61829;53.286;10.434;2024-03-17T02:50:24;102066.66;;;3.57;91.78
73558;BME280;61829;53.286;10.434;2024-03-17T02:53:08;102069.53;;;3.54;91.79
73558;BME280;61829;53.286;10.434;2024-03-17T02:55:53;102059.81;;;3.53;91.07
73558;BME280;61829;53.286;10.434;2024-03-17T02:58:39;102060.88;;;3.51;91.13
73558;BME280;61829;53.286;10.434;2024-03-17T03:01:23;102060.25;;;3.47;90.62
73558;BME280;61829;53.286;10.434;2024-03-17T03:04:08;102063.38;;;3.41;91.04
73558;BME280;61829;53.286;10.434;2024-03-17T03:06:53;102061.00;;;3.36;90.44
73558;BME280;61829;53.286;10.434;2024-03-17T03:09:38;102054.31;;;3.31;91.12
73558;BME280;61829;53.286;10.434;2024-03-17T03:12:23;102060.91;;;3.25;90.86
73558;BME280;61829;53.286;10.434;2024-03-17T03:15:07;102063.69;;;3.24;90.61
73558;BME280;61829;53.286;10.434;2024-03-17T03:17:52;102064.97;;;3.18;90.98
73558;BME280;61829;53.286;10.434;2024-03-17T03:20:38;102066.25;;;3.12;89.98
73558;BME280;61829;53.286;10.434;2024-03-17T03:27:22;102068.16;;;2.98;90.36
73558;BME280;61829;53.286;10.434;2024-03-17T03:30:09;102067.72;;;2.91;90.29
73558;BME280;61829;53.286;10.434;2024-03-17T03:32:55;102068.25;;;2.83;89.92
73558;BME280;61829;53.286;10.434;2024-03-17T03:35:39;102072.06;;;2.79;90.15
73558;BME280;61829;53.286;10.434;2024-03-17T03:38:24;102080.38;;;2.75;90.32
73558;BME280;61829;53.286;10.434;2024-03-17T03:41:19;102072.78;;;2.68;90.01
73558;BME280;61829;53.286;10.434;2024-03-17T03:44:03;102077.59;;;2.63;90.35
73558;BME280;61829;53.286;10.434;2024-03-17T03:46:48;102077.75;;;2.60;90.27
73558;BME280;61829;53.286;10.434;2024-03-17T03:49:33;102080.53;;;2.59;90.54
73558;BME280;61829;53.286;10.434;2024-03-17T03:52:18;102079.03;;;2.55;90.50
73558;BME280;61829;53.286;10.434;2024-03-17T03:55:04;102082.00;;;2.50;90.65
73558;BME280;61829;53.286;10.434;2024-03-17T03:57:51;102078.78;;;2.45;90.74
73558;BME280;61829;53.286;10.434;2024-03-17T04:00:39;102081.75;;;2.40;90.51
73558;BME280;61829;53.286;10.434;2024-03-17T04:03:24;102079.41;;;2.36;90.43
73558;BME280;61829;53.286;10.434;2024-03-17T04:06:10;102072.56;;;2.32;90.68
73558;BME280;61829;53.286;10.434;2024-03-17T04:08:55;102083.41;;;2.29;90.41
73558;BME280;61829;53.286;10.434;2024-03-17T04:11:39;102088.06;;;2.25;90.20
73558;BME280;61829;53.286;10.434;2024-03-17T04:14:23;102084.22;;;2.16;90.43
73558;BME280;61829;53.286;10.434;2024-03-17T04:17:08;102086.31;;;2.11;90.13
73558;BME280;61829;53.286;10.434;2024-03-17T04:19:54;102084.81;;;2.07;90.23
73558;BME280;61829;53.286;10.434;2024-03-17T04:22:40;102095.72;;;2.02;90.50
73558;BME280;61829;53.286;10.434;2024-03-17T04:25:24;102090.69;;;1.98;90.26
73558;BME280;61829;53.286;10.434;2024-03-17T04:28:09;102091.84;;;1.94;90.04
73558;BME280;61829;53.286;10.434;2024-03-17T04:31:02;102087.78;;;1.88;89.99
73558;BME280;61829;53.286;10.434;2024-03-17T04:33:48;102088.84;;;1.86;90.19
73558;BME280;61829;53.286;10.434;2024-03-17T04:36:32;102081.06;;;1.83;90.00
73558;BME280;61829;53.286;10.434;2024-03-17T04:39:17;102092.06;;;1.76;90.03
73558;BME280;61829;53.286;10.434;2024-03-17T04:42:03;102086.09;;;1.73;89.99
73558;BME280;61829;53.286;10.434;2024-03-17T04:44:48;102081.91;;;1.69;90.02
73558;BME280;61829;53.286;10.434;2024-03-17T04:47:32;102082.19;;;1.64;90.08
73558;BME280;61829;53.286;10.434;2024-03-17T04:50:17;102086.00;;;1.60;89.72
73558;BME280;61829;53.286;10.434;2024-03-17T04:53:02;102092.56;;;1.54;89.50
73558;BME280;61829;53.286;10.434;2024-03-17T04:55:46;102089.44;;;1.48;89.51
73558;BME280;61829;53.286;10.434;2024-03-17T04:58:31;102092.28;;;1.45;89.33
73558;BME280;61829;53.286;10.434;2024-03-17T05:01:16;102096.06;;;1.41;89.43
73558;BME280;61829;53.286;10.434;2024-03-17T05:04:02;102091.91;;;1.37;89.29
73558;BME280;61829;53.286;10.434;2024-03-17T05:06:50;102107.13;;;1.33;89.48
73558;BME280;61829;53.286;10.434;2024-03-17T05:09:35;102105.56;;;1.30;89.16
73558;BME280;61829;53.286;10.434;2024-03-17T05:12:20;102113.59;;;1.29;89.46
73558;BME280;61829;53.286;10.434;2024-03-17T05:15:05;102112.94;;;1.25;89.52
73558;BME280;61829;53.286;10.434;2024-03-17T05:17:49;102113.13;;;1.22;89.01
73558;BME280;61829;53.286;10.434;2024-03-17T05:20:34;102114.16;;;1.20;89.52
73558;BME280;61829;53.286;10.434;2024-03-17T05:23:19;102121.47;;;1.16;89.17
73558;BME280;61829;53.286;10.434;2024-03-17T05:26:03;102122.41;;;1.15;89.36
73558;BME280;61829;53.286;10.434;2024-03-17T05:28:54;102121.63;;;1.13;89.35
73558;BME280;61829;53.286;10.434;2024-03-17T05:31:39;102124.28;;;1.13;89.54
73558;BME280;61829;53.286;10.434;2024-03-17T05:34:23;102129.59;;;1.13;89.51
73558;BME280;61829;53.286;10.434;2024-03-17T05:37:08;102123.34;;;1.14;90.01
73558;BME280;61829;53.286;10.434;2024-03-17T05:39:53;102128.47;;;1.17;89.94
73558;BME280;61829;53.286;10.434;2024-03-17T05:42:41;102132.09;;;1.16;90.12
73558;BME280;61829;53.286;10.434;2024-03-17T05:45:26;102132.81;;;1.18;90.06
73558;BME280;61829;53.286;10.434;2024-03-17T05:48:11;102141.44;;;1.22;89.90
73558;BME280;61829;53.286;10.434;2024-03-17T05:50:55;102139.31;;;1.28;90.93
73558;BME280;61829;53.286;10.434;2024-03-17T05:53:40;102144.31;;;1.33;91.18
73558;BME280;61829;53.286;10.434;2024-03-17T05:56:24;102143.00;;;1.40;91.00
73558;BME280;61829;53.286;10.434;2024-03-17T05:59:09;102152.41;;;1.46;91.59
73558;BME280;61829;53.286;10.434;2024-03-17T06:01:53;102147.56;;;1.52;91.33
73558;BME280;61829;53.286;10.434;2024-03-17T06:04:37;102155.84;;;1.62;91.59
73558;BME280;61829;53.286;10.434;2024-03-17T06:07:22;102149.97;;;1.71;91.41
73558;BME280;61829;53.286;10.434;2024-03-17T06:10:07;102154.50;;;1.84;91.96
73558;BME280;61829;53.286;10.434;2024-03-17T06:12:52;102149.50;;;1.93;91.92
73558;BME280;61829;53.286;10.434;2024-03-17T06:15:37;102149.00;;;2.01;91.88
73558;BME280;61829;53.286;10.434;2024-03-17T06:18:22;102145.75;;;2.10;91.56
73558;BME280;61829;53.286;10.434;2024-03-17T06:21:08;102148.03;;;2.16;91.87
73558;BME280;61829;53.286;10.434;2024-03-17T06:23:53;102152.94;;;2.22;92.00
73558;BME280;61829;53.286;10.434;2024-03-17T06:26:38;102157.88;;;2.29;91.78
73558;BME280;61829;53.286;10.434;2024-03-17T06:29:22;102156.53;;;2.36;92.12
73558;BME280;61829;53.286;10.434;2024-03-17T06:32:07;102162.09;;;2.45;91.55
73558;BME280;61829;53.286;10.434;2024-03-17T06:34:51;102153.88;;;2.63;92.35
73558;BME280;61829;53.286;10.434;2024-03-17T06:37:36;102158.56;;;2.99;92.58
73558;BME280;61829;53.286;10.434;2024-03-17T06:40:21;102157.22;;;3.19;92.68
73558;BME280;61829;53.286;10.434;2024-03-17T06:43:05;102155.75;;;3.53;92.32
73558;BME280;61829;53.286;10.434;2024-03-17T06:45:57;102157.28;;;3.57;91.56
73558;BME280;61829;53.286;10.434;2024-03-17T06:48:42;102166.44;;;3.92;90.15
73558;BME280;61829;53.286;10.434;2024-03-17T06:51:27;102169.28;;;4.51;91.36
73558;BME280;61829;53.286;10.434;2024-03-17T06:54:11;102162.38;;;4.84;90.79
73558;BME280;61829;53.286;10.434;2024-03-17T06:56:55;102167.63;;;4.85;87.85
73558;BME280;61829;53.286;10.434;2024-03-17T06:59:40;102171.75;;;4.89;87.43
73558;BME280;61829;53.286;10.434;2024-03-17T07:02:24;102174.28;;;5.15;86.26
73558;BME280;61829;53.286;10.434;2024-03-17T07:05:13;102176.50;;;5.68;86.29
73558;BME280;61829;53.286;10.434;2024-03-17T07:08:00;102175.69;;;6.12;84.13
73558;BME280;61829;53.286;10.434;2024-03-17T07:11:01;102183.16;;;6.63;83.54
73558;BME280;61829;53.286;10.434;2024-03-17T07:13:47;102182.34;;;7.16;82.44
73558;BME280;61829;53.286;10.434;2024-03-17T07:16:33;102173.00;;;7.52;79.33
73558;BME280;61829;53.286;10.434;2024-03-17T07:19:18;102179.13;;;7.85;77.46
73558;BME280;61829;53.286;10.434;2024-03-17T07:22:02;102179.63;;;8.09;75.12
73558;BME280;61829;53.286;10.434;2024-03-17T07:24:47;102180.50;;;8.41;74.10
73558;BME280;61829;53.286;10.434;2024-03-17T07:27:37;102177.47;;;8.84;72.06
73558;BME280;61829;53.286;10.434;2024-03-17T07:30:30;102181.56;;;9.17;70.15
73558;BME280;61829;53.286;10.434;2024-03-17T07:33:22;102175.69;;;9.61;68.90
73558;BME280;61829;53.286;10.434;2024-03-17T07:36:13;102170.84;;;10.11;67.33
73558;BME280;61829;53.286;10.434;2024-03-17T07:39:03;102185.53;;;10.54;64.56
73558;BME280;61829;53.286;10.434;2024-03-17T07:42:00;102184.19;;;10.86;62.87
73558;BME280;61829;53.286;10.434;2024-03-17T07:44:59;102177.88;;;11.13;62.03
73558;BME280;61829;53.286;10.434;2024-03-17T07:47:51;102176.38;;;11.37;60.92
73558;BME280;61829;53.286;10.434;2024-03-17T07:54:19;102174.13;;;11.50;58.05
73558;BME280;61829;53.286;10.434;2024-03-17T07:57:14;102181.75;;;11.81;57.94
73558;BME280;61829;53.286;10.434;2024-03-17T08:00:12;102183.31;;;12.18;58.11
73558;BME280;61829;53.286;10.434;2024-03-17T08:03:07;102186.81;;;12.52;56.53
73558;BME280;61829;53.286;10.434;2024-03-17T08:06:05;102186.22;;;12.83;54.84
73558;BME280;61829;53.286;10.434;2024-03-17T08:09:03;102184.72;;;13.05;53.72
73558;BME280;61829;53.286;10.434;2024-03-17T08:12:04;102179.97;;;13.07;53.62
73558;BME280;61829;53.286;10.434;2024-03-17T08:15:05;102173.56;;;13.00;52.41
73558;BME280;61829;53.286;10.434;2024-03-17T08:18:07;102180.63;;;12.85;52.50
73558;BME280;61829;53.286;10.434;2024-03-17T08:21:06;102179.78;;;12.76;53.50
73558;BME280;61829;53.286;10.434;2024-03-17T08:24:12;102187.25;;;13.07;52.84
73558;BME280;61829;53.286;10.434;2024-03-17T08:27:08;102177.97;;;13.17;51.95
73558;BME280;61829;53.286;10.434;2024-03-17T08:29:59;102179.31;;;12.97;49.20
73558;BME280;61829;53.286;10.434;2024-03-17T08:32:59;102182.66;;;12.99;50.73
73558;BME280;61829;53.286;10.434;2024-03-17T08:38:49;102183.91;;;13.45;50.37
73558;BME280;61829;53.286;10.434;2024-03-17T08:41:48;102181.19;;;13.54;48.99
73558;BME280;61829;53.286;10.434;2024-03-17T08:45:04;102181.47;;;13.75;47.27
73558;BME280;61829;53.286;10.434;2024-03-17T08:48:05;102172.72;;;13.73;45.32
73558;BME280;61829;53.286;10.434;2024-03-17T08:51:00;102169.66;;;13.76;46.00
73558;BME280;61829;53.286;10.434;2024-03-17T08:53:55;102163.63;;;14.05;46.24
73558;BME280;61829;53.286;10.434;2024-03-17T08:56:45;102160.66;;;14.23;46.12
73558;BME280;61829;53.286;10.434;2024-03-17T08:59:34;102163.50;;;13.99;44.85
73558;BME280;61829;53.286;10.434;2024-03-17T09:02:38;102151.41;;;14.09;46.10
73558;BME280;61829;53.286;10.434;2024-03-17T09:05:26;102153.69;;;14.29;45.51
73558;BME280;61829;53.286;10.434;2024-03-17T09:11:16;102154.53;;;13.90;45.51
73558;BME280;61829;53.286;10.434;2024-03-17T09:14:10;102151.91;;;14.13;45.98
73558;BME280;61829;53.286;10.434;2024-03-17T09:17:44;102165.16;;;14.08;42.51
73558;BME280;61829;53.286;10.434;2024-03-17T09:20:35;102164.41;;;14.22;40.15
73558;BME280;61829;53.286;10.434;2024-03-17T09:23:31;102162.41;;;14.16;38.59
73558;BME280;61829;53.286;10.434;2024-03-17T09:26:30;102159.78;;;13.83;37.58
73558;BME280;61829;53.286;10.434;2024-03-17T09:29:40;102161.56;;;13.43;38.43
73558;BME280;61829;53.286;10.434;2024-03-17T09:32:35;102160.53;;;13.44;39.66
73558;BME280;61829;53.286;10.434;2024-03-17T09:35:30;102156.75;;;13.78;39.64
73558;BME280;61829;53.286;10.434;2024-03-17T09:38:15;102168.63;;;13.69;39.00
73558;BME280;61829;53.286;10.434;2024-03-17T09:40:59;102180.16;;;13.71;39.37
73558;BME280;61829;53.286;10.434;2024-03-17T09:43:47;102167.31;;;13.57;40.01
73558;BME280;61829;53.286;10.434;2024-03-17T09:46:33;102172.75;;;13.48;38.82
73558;BME280;61829;53.286;10.434;2024-03-17T09:49:19;102167.63;;;13.13;39.86
73558;BME280;61829;53.286;10.434;2024-03-17T09:52:03;102159.06;;;13.25;42.57
73558;BME280;61829;53.286;10.434;2024-03-17T09:55:08;102160.03;;;13.57;39.76
73558;BME280;61829;53.286;10.434;2024-03-17T09:57:57;102167.78;;;13.68;39.04
73558;BME280;61829;53.286;10.434;2024-03-17T10:00:42;102165.78;;;13.62;41.13
73558;BME280;61829;53.286;10.434;2024-03-17T10:06:27;102175.59;;;13.63;39.87
73558;BME280;61829;53.286;10.434;2024-03-17T10:09:15;102174.97;;;14.01;40.29
73558;BME280;61829;53.286;10.434;2024-03-17T10:12:25;102168.81;;;14.15;39.90
73558;BME280;61829;53.286;10.434;2024-03-17T10:15:13;102176.34;;;14.05;40.98
73558;BME280;61829;53.286;10.434;2024-03-17T10:17:58;102174.13;;;14.08;40.32
73558;BME280;61829;53.286;10.434;2024-03-17T10:20:42;102174.13;;;14.08;39.38
73558;BME280;61829;53.286;10.434;2024-03-17T10:23:27;102178.63;;;14.24;41.22
73558;BME280;61829;53.286;10.434;2024-03-17T10:26:15;102182.13;;;14.41;38.52
73558;BME280;61829;53.286;10.434;2024-03-17T10:29:00;102184.75;;;14.18;38.87
73558;BME280;61829;53.286;10.434;2024-03-17T10:31:45;102181.59;;;14.37;39.53
73558;BME280;61829;53.286;10.434;2024-03-17T10:34:31;102189.75;;;14.77;39.17
73558;BME280;61829;53.286;10.434;2024-03-17T10:37:21;102190.94;;;14.74;38.20
73558;BME280;61829;53.286;10.434;2024-03-17T10:40:12;102189.63;;;14.93;37.49
73558;BME280;61829;53.286;10.434;2024-03-17T10:42:59;102188.97;;;14.91;38.32
73558;BME280;61829;53.286;10.434;2024-03-17T10:45:44;102187.66;;;14.87;37.44
73558;BME280;61829;53.286;10.434;2024-03-17T10:48:31;102186.66;;;14.80;38.98
73558;BME280;61829;53.286;10.434;2024-03-17T10:51:18;102183.31;;;15.01;36.76
73558;BME280;61829;53.286;10.434;2024-03-17T10:54:03;102176.06;;;15.16;36.16
73558;BME280;61829;53.286;10.434;2024-03-17T10:56:48;102172.88;;;15.50;37.66
73558;BME280;61829;53.286;10.434;2024-03-17T10:59:41;102166.75;;;15.71;36.45
73558;BME280;61829;53.286;10.434;2024-03-17T11:02:27;102169.09;;;15.89;35.98
73558;BME280;61829;53.286;10.434;2024-03-17T11:05:28;102165.19;;;15.77;34.74
73558;BME280;61829;53.286;10.434;2024-03-17T11:08:19;102168.63;;;15.71;37.46
73558;BME280;61829;53.286;10.434;2024-03-17T11:11:04;102171.63;;;15.76;36.25
73558;BME280;61829;53.286;10.434;2024-03-17T11:13:49;102170.72;;;15.46;36.61
73558;BME280;61829;53.286;10.434;2024-03-17T11:16:33;102170.44;;;15.41;37.08
73558;BME280;61829;53.286;10.434;2024-03-17T11:19:18;102177.13;;;15.30;36.91
73558;BME280;61829;53.286;10.434;2024-03-17T11:26:02;102175.34;;;16.34;37.46
73558;BME280;61829;53.286;10.434;2024-03-17T11:28:50;102170.09;;;16.48;34.75
73558;BME280;61829;53.286;10.434;2024-03-17T11:31:38;102175.72;;;16.46;36.58
73558;BME280;61829;53.286;10.434;2024-03-17T11:37:40;102173.94;;;16.53;40.54
73558;BME280;61829;53.286;10.434;2024-03-17T11:40:25;102167.28;;;16.41;35.59
73558;BME280;61829;53.286;10.434;2024-03-17T11:43:16;102165.03;;;16.45;35.14
73558;BME280;61829;53.286;10.434;2024-03-17T11:46:03;102156.94;;;16.51;35.08
73558;BME280;61829;53.286;10.434;2024-03-17T11:48:48;102164.78;;;16.61;35.93
73558;BME280;61829;53.286;10.434;2024-03-17T11:51:34;102153.84;;;16.54;35.13
73558;BME280;61829;53.286;10.434;2024-03-17T11:54:21;102145.16;;;16.66;34.58
73558;BME280;61829;53.286;10.434;2024-03-17T11:57:20;102135.47;;;16.78;34.62
73558;BME280;61829;53.286;10.434;2024-03-17T12:00:20;102137.03;;;17.09;33.61
73558;BME280;61829;53.286;10.434;2024-03-17T12:03:10;102141.44;;;16.88;33.67
73558;BME280;61829;53.286;10.434;2024-03-17T12:05:55;102143.84;;;16.76;34.93
73558;BME280;61829;53.286;10.434;2024-03-17T12:08:39;102138.56;;;16.75;35.33
73558;BME280;61829;53.286;10.434;2024-03-17T12:11:24;102136.56;;;16.47;34.64
73558;BME280;61829;53.286;10.434;2024-03-17T12:14:21;102132.84;;;16.70;35.43
73558;BME280;61829;53.286;10.434;2024-03-17T12:17:10;102128.00;;;16.87;33.97
73558;BME280;61829;53.286;10.434;2024-03-17T12:19:56;102129.22;;;16.63;34.20
73558;BME280;61829;53.286;10.434;2024-03-17T12:22:40;102135.22;;;16.58;33.99
73558;BME280;61829;53.286;10.434;2024-03-17T12:25:27;102140.75;;;16.65;33.56
73558;BME280;61829;53.286;10.434;2024-03-17T12:28:16;102129.50;;;16.68;33.60
73558;BME280;61829;53.286;10.434;2024-03-17T12:31:01;102131.41;;;16.52;33.10
73558;BME280;61829;53.286;10.434;2024-03-17T12:33:46;102132.84;;;16.48;34.01
73558;BME280;61829;53.286;10.434;2024-03-17T12:36:30;102132.94;;;16.40;34.12
73558;BME280;61829;53.286;10.434;2024-03-17T12:39:23;102132.31;;;16.23;34.08
73558;BME280;61829;53.286;10.434;2024-03-17T12:42:15;102135.31;;;16.13;33.89
73558;BME280;61829;53.286;10.434;2024-03-17T12:45:03;102132.84;;;15.97;33.84
73558;BME280;61829;53.286;10.434;2024-03-17T12:47:51;102124.34;;;15.62;34.56
73558;BME280;61829;53.286;10.434;2024-03-17T12:50:36;102121.91;;;15.67;37.10
73558;BME280;61829;53.286;10.434;2024-03-17T12:53:21;102125.78;;;15.73;36.63
73558;BME280;61829;53.286;10.434;2024-03-17T12:56:06;102123.78;;;15.52;38.47
73558;BME280;61829;53.286;10.434;2024-03-17T12:59:10;102113.47;;;15.62;38.44
73558;BME280;61829;53.286;10.434;2024-03-17T13:02:14;102109.91;;;15.47;38.36
73558;BME280;61829;53.286;10.434;2024-03-17T13:05:25;102100.09;;;15.61;38.02
73558;BME280;61829;53.286;10.434;2024-03-17T13:08:10;102095.50;;;15.46;37.59
73558;BME280;61829;53.286;10.434;2024-03-17T13:10:55;102089.91;;;15.10;39.30
73558;BME280;61829;53.286;10.434;2024-03-17T13:13:39;102091.03;;;14.78;39.03
73558;BME280;61829;53.286;10.434;2024-03-17T13:16:24;102105.94;;;14.59;37.34
73558;BME280;61829;53.286;10.434;2024-03-17T13:19:11;102100.56;;;14.43;38.11
73558;BME280;61829;53.286;10.434;2024-03-17T13:22:05;102087.84;;;14.12;39.23
73558;BME280;61829;53.286;10.434;2024-03-17T13:24:54;102091.25;;;14.14;39.34
73558;BME280;61829;53.286;10.434;2024-03-17T13:27:38;102081.88;;;14.25;39.17
73558;BME280;61829;53.286;10.434;2024-03-17T13:30:23;102084.63;;;14.17;38.38
73558;BME280;61829;53.286;10.434;2024-03-17T13:33:09;102081.31;;;14.29;39.67
73558;BME280;61829;53.286;10.434;2024-03-17T13:35:55;102082.56;;;14.50;37.87
73558;BME280;61829;53.286;10.434;2024-03-17T13:38:40;102090.38;;;14.45;39.23
73558;BME280;61829;53.286;10.434;2024-03-17T13:41:27;102077.84;;;14.75;38.85
73558;BME280;61829;53.286;10.434;2024-03-17T13:44:12;102080.31;;;14.62;37.71
73558;BME280;61829;53.286;10.434;2024-03-17T13:46:58;102082.34;;;14.59;40.24
73558;BME280;61829;53.286;10.434;2024-03-17T13:49:45;102074.16;;;14.68;38.74
73558;BME280;61829;53.286;10.434;2024-03-17T13:52:30;102067.53;;;14.70;39.04
73558;BME280;61829;53.286;10.434;2024-03-17T13:55:21;102072.25;;;14.91;37.89
73558;BME280;61829;53.286;10.434;2024-03-17T13:58:06;102079.84;;;14.96;36.84
73558;BME280;61829;53.286;10.434;2024-03-17T14:00:50;102078.31;;;14.78;38.22
73558;BME280;61829;53.286;10.434;2024-03-17T14:03:35;102075.66;;;14.70;38.96
73558;BME280;61829;53.286;10.434;2024-03-17T14:06:23;102067.16;;;14.73;37.90
73558;BME280;61829;53.286;10.434;2024-03-17T14:09:12;102068.75;;;14.82;37.81
73558;BME280;61829;53.286;10.434;2024-03-17T14:11:57;102073.38;;;14.59;39.15
73558;BME280;61829;53.286;10.434;2024-03-17T14:14:41;102073.63;;;14.41;39.08
73558;BME280;61829;53.286;10.434;2024-03-17T14:17:28;102067.19;;;14.42;39.32
73558;BME280;61829;53.286;10.434;2024-03-17T14:20:14;102062.06;;;14.24;39.71
73558;BME280;61829;53.286;10.434;2024-03-17T14:23:02;102057.00;;;14.21;40.28
73558;BME280;61829;53.286;10.434;2024-03-17T14:25:47;102058.63;;;14.30;39.71
73558;BME280;61829;53.286;10.434;2024-03-17T14:28:33;102052.44;;;14.13;39.74
73558;BME280;61829;53.286;10.434;2024-03-17T14:31:18;102046.28;;;13.97;38.78
73558;BME280;61829;53.286;10.434;2024-03-17T14:34:03;102045.31;;;13.81;39.46
73558;BME280;61829;53.286;10.434;2024-03-17T14:36:48;102039.53;;;13.53;40.45
73558;BME280;61829;53.286;10.434;2024-03-17T14:39:33;102038.03;;;13.42;40.25
73558;BME280;61829;53.286;10.434;2024-03-17T14:42:17;102040.63;;;13.28;39.80
73558;BME280;61829;53.286;10.434;2024-03-17T14:45:16;102036.38;;;13.09;41.73
73558;BME280;61829;53.286;10.434;2024-03-17T14:48:25;102038.41;;;12.98;41.65
73558;BME280;61829;53.286;10.434;2024-03-17T14:51:32;102037.09;;;12.70;40.66
73558;BME280;61829;53.286;10.434;2024-03-17T14:54:24;102026.94;;;12.47;41.64
73558;BME280;61829;53.286;10.434;2024-03-17T14:57:21;102026.91;;;12.31;43.07